sensor_id;sensor_type;location;lat;lon;timestamp;P1;durP1;ratioP1;P2;durP2;ratioP2
13374;SDS011;6756;51.354;15.754;2022-08-26T00:00:47;8.90;;;5.70;;
13374;SDS011;6756;51.354;15.754;2022-08-26T00:04:48;8.00;;;6.00;;
13374;SDS011;6756;51.354;15.754;2022-08-26T00:08:48;6.47;;;5.60;;
13374;SDS011;6756;51.354;15.754;2022-08-26T00:12:50;5.80;;;5.13;;
13374;SDS011;6756;51.354;15.754;2022-08-26T00:16:50;8.63;;;5.57;;
13374;SDS011;6756;51.354;15.754;2022-08-26T00:20:51;7.43;;;5.50;;
13374;SDS011;6756;51.354;15.754;2022-08-26T00:24:52;5.93;;;5.33;;
13374;SDS011;6756;51.354;15.754;2022-08-26T00:28:53;6.47;;;5.37;;
13374;SDS011;6756;51.354;15.754;2022-08-26T00:32:54;5.73;;;5.23;;
13374;SDS011;6756;51.354;15.754;2022-08-26T00:36:56;5.53;;;4.17;;
13374;SDS011;6756;51.354;15.754;2022-08-26T00:40:56;7.03;;;4.23;;
13374;SDS011;6756;51.354;15.754;2022-08-26T00:44:57;5.67;;;4.87;;
13374;SDS011;6756;51.354;15.754;2022-08-26T00:49:01;6.17;;;5.23;;
13374;SDS011;6756;51.354;15.754;2022-08-26T00:53:15;5.90;;;5.40;;
13374;SDS011;6756;51.354;15.754;2022-08-26T00:57:21;8.50;;;5.40;;
13374;SDS011;6756;51.354;15.754;2022-08-26T01:01:22;5.97;;;5.37;;
13374;SDS011;6756;51.354;15.754;2022-08-26T01:05:25;6.97;;;5.00;;
13374;SDS011;6756;51.354;15.754;2022-08-26T01:09:26;9.07;;;6.27;;
13374;SDS011;6756;51.354;15.754;2022-08-26T01:13:27;7.27;;;6.00;;
13374;SDS011;6756;51.354;15.754;2022-08-26T01:17:29;7.57;;;6.63;;
13374;SDS011;6756;51.354;15.754;2022-08-26T01:21:31;10.10;;;7.37;;
13374;SDS011;6756;51.354;15.754;2022-08-26T01:25:39;8.43;;;7.07;;
13374;SDS011;6756;51.354;15.754;2022-08-26T01:29:42;10.37;;;7.60;;
13374;SDS011;6756;51.354;15.754;2022-08-26T01:33:54;8.60;;;7.67;;
13374;SDS011;6756;51.354;15.754;2022-08-26T01:38:07;11.70;;;7.83;;
13374;SDS011;6756;51.354;15.754;2022-08-26T01:42:10;10.07;;;8.23;;
13374;SDS011;6756;51.354;15.754;2022-08-26T01:46:13;13.50;;;8.33;;
13374;SDS011;6756;51.354;15.754;2022-08-26T01:50:17;9.07;;;7.73;;
13374;SDS011;6756;51.354;15.754;2022-08-26T01:54:23;9.80;;;7.13;;
13374;SDS011;6756;51.354;15.754;2022-08-26T01:58:26;7.47;;;6.23;;
13374;SDS011;6756;51.354;15.754;2022-08-26T02:02:41;7.33;;;6.63;;
13374;SDS011;6756;51.354;15.754;2022-08-26T02:06:48;6.97;;;6.37;;
13374;SDS011;6756;51.354;15.754;2022-08-26T02:10:49;7.47;;;6.33;;
13374;SDS011;6756;51.354;15.754;2022-08-26T02:14:51;6.13;;;5.63;;
13374;SDS011;6756;51.354;15.754;2022-08-26T02:18:55;6.70;;;6.10;;
13374;SDS011;6756;51.354;15.754;2022-08-26T02:22:57;6.50;;;5.93;;
13374;SDS011;6756;51.354;15.754;2022-08-26T02:26:58;7.97;;;6.57;;
13374;SDS011;6756;51.354;15.754;2022-08-26T02:31:00;8.17;;;7.37;;
13374;SDS011;6756;51.354;15.754;2022-08-26T02:35:01;8.00;;;7.27;;
13374;SDS011;6756;51.354;15.754;2022-08-26T02:39:02;8.97;;;8.07;;
13374;SDS011;6756;51.354;15.754;2022-08-26T02:43:03;8.90;;;7.37;;
13374;SDS011;6756;51.354;15.754;2022-08-26T02:47:05;7.97;;;7.03;;
13374;SDS011;6756;51.354;15.754;2022-08-26T02:51:06;7.97;;;7.10;;
13374;SDS011;6756;51.354;15.754;2022-08-26T02:55:07;7.93;;;7.03;;
13374;SDS011;6756;51.354;15.754;2022-08-26T02:59:08;9.83;;;7.20;;
13374;SDS011;6756;51.354;15.754;2022-08-26T03:03:11;9.83;;;7.77;;
13374;SDS011;6756;51.354;15.754;2022-08-26T03:07:12;10.80;;;8.60;;
13374;SDS011;6756;51.354;15.754;2022-08-26T03:11:13;12.13;;;8.37;;
13374;SDS011;6756;51.354;15.754;2022-08-26T03:15:15;11.23;;;8.00;;
13374;SDS011;6756;51.354;15.754;2022-08-26T03:19:17;10.57;;;8.77;;
13374;SDS011;6756;51.354;15.754;2022-08-26T03:23:18;12.93;;;9.43;;
13374;SDS011;6756;51.354;15.754;2022-08-26T03:27:18;21.47;;;11.40;;
13374;SDS011;6756;51.354;15.754;2022-08-26T03:31:19;17.33;;;12.13;;
13374;SDS011;6756;51.354;15.754;2022-08-26T03:35:20;17.47;;;11.40;;
13374;SDS011;6756;51.354;15.754;2022-08-26T03:39:21;13.90;;;10.37;;
13374;SDS011;6756;51.354;15.754;2022-08-26T03:43:22;18.77;;;11.03;;
13374;SDS011;6756;51.354;15.754;2022-08-26T03:47:25;17.03;;;11.13;;
13374;SDS011;6756;51.354;15.754;2022-08-26T03:51:26;15.73;;;10.27;;
13374;SDS011;6756;51.354;15.754;2022-08-26T03:55:29;13.90;;;9.73;;
13374;SDS011;6756;51.354;15.754;2022-08-26T03:59:32;13.13;;;9.90;;
13374;SDS011;6756;51.354;15.754;2022-08-26T04:03:32;12.17;;;9.93;;
13374;SDS011;6756;51.354;15.754;2022-08-26T04:07:51;12.97;;;9.77;;
13374;SDS011;6756;51.354;15.754;2022-08-26T04:11:53;10.60;;;9.23;;
13374;SDS011;6756;51.354;15.754;2022-08-26T04:15:55;10.80;;;8.17;;
13374;SDS011;6756;51.354;15.754;2022-08-26T04:19:56;9.47;;;8.33;;
13374;SDS011;6756;51.354;15.754;2022-08-26T04:23:57;8.93;;;8.03;;
13374;SDS011;6756;51.354;15.754;2022-08-26T04:27:58;9.30;;;8.30;;
13374;SDS011;6756;51.354;15.754;2022-08-26T04:32:01;11.40;;;8.73;;
13374;SDS011;6756;51.354;15.754;2022-08-26T04:36:03;12.67;;;9.03;;
13374;SDS011;6756;51.354;15.754;2022-08-26T04:40:05;11.83;;;10.57;;
13374;SDS011;6756;51.354;15.754;2022-08-26T04:44:08;12.33;;;11.07;;
13374;SDS011;6756;51.354;15.754;2022-08-26T04:48:09;13.03;;;11.63;;
13374;SDS011;6756;51.354;15.754;2022-08-26T04:52:10;14.60;;;12.23;;
13374;SDS011;6756;51.354;15.754;2022-08-26T04:56:12;14.23;;;12.43;;
13374;SDS011;6756;51.354;15.754;2022-08-26T05:00:13;16.03;;;12.60;;
13374;SDS011;6756;51.354;15.754;2022-08-26T05:04:14;14.73;;;10.97;;
13374;SDS011;6756;51.354;15.754;2022-08-26T05:08:16;18.30;;;12.87;;
13374;SDS011;6756;51.354;15.754;2022-08-26T05:12:18;21.23;;;14.80;;
13374;SDS011;6756;51.354;15.754;2022-08-26T05:16:19;17.77;;;13.27;;
13374;SDS011;6756;51.354;15.754;2022-08-26T05:20:20;14.57;;;11.83;;
13374;SDS011;6756;51.354;15.754;2022-08-26T05:24:21;18.80;;;14.10;;
13374;SDS011;6756;51.354;15.754;2022-08-26T05:28:22;15.50;;;13.27;;
13374;SDS011;6756;51.354;15.754;2022-08-26T05:32:23;13.20;;;11.90;;
13374;SDS011;6756;51.354;15.754;2022-08-26T05:36:25;11.60;;;10.40;;
13374;SDS011;6756;51.354;15.754;2022-08-26T05:40:28;15.37;;;12.93;;
13374;SDS011;6756;51.354;15.754;2022-08-26T05:44:32;12.03;;;10.83;;
13374;SDS011;6756;51.354;15.754;2022-08-26T05:48:33;13.30;;;12.03;;
13374;SDS011;6756;51.354;15.754;2022-08-26T05:52:34;9.70;;;8.80;;
13374;SDS011;6756;51.354;15.754;2022-08-26T05:56:34;12.20;;;10.27;;
13374;SDS011;6756;51.354;15.754;2022-08-26T06:00:38;11.27;;;10.07;;
13374;SDS011;6756;51.354;15.754;2022-08-26T06:04:40;11.53;;;9.60;;
13374;SDS011;6756;51.354;15.754;2022-08-26T06:08:41;11.77;;;10.57;;
13374;SDS011;6756;51.354;15.754;2022-08-26T06:12:43;17.60;;;11.40;;
13374;SDS011;6756;51.354;15.754;2022-08-26T06:16:44;12.80;;;11.43;;
13374;SDS011;6756;51.354;15.754;2022-08-26T06:20:45;16.57;;;11.43;;
13374;SDS011;6756;51.354;15.754;2022-08-26T06:24:47;16.43;;;12.13;;
13374;SDS011;6756;51.354;15.754;2022-08-26T06:29:13;23.47;;;12.80;;
13374;SDS011;6756;51.354;15.754;2022-08-26T06:33:15;18.03;;;13.53;;
13374;SDS011;6756;51.354;15.754;2022-08-26T06:37:16;13.43;;;10.97;;
13374;SDS011;6756;51.354;15.754;2022-08-26T06:41:17;12.63;;;9.43;;
13374;SDS011;6756;51.354;15.754;2022-08-26T06:45:20;18.70;;;13.23;;
13374;SDS011;6756;51.354;15.754;2022-08-26T06:49:21;14.90;;;10.63;;
13374;SDS011;6756;51.354;15.754;2022-08-26T06:53:22;16.50;;;11.00;;
13374;SDS011;6756;51.354;15.754;2022-08-26T06:57:22;16.97;;;10.53;;
13374;SDS011;6756;51.354;15.754;2022-08-26T07:01:25;15.13;;;11.07;;
13374;SDS011;6756;51.354;15.754;2022-08-26T07:05:27;21.03;;;13.23;;
13374;SDS011;6756;51.354;15.754;2022-08-26T07:09:28;20.48;;;13.77;;
13374;SDS011;6756;51.354;15.754;2022-08-26T07:13:34;23.48;;;17.48;;
13374;SDS011;6756;51.354;15.754;2022-08-26T07:17:36;25.93;;;17.17;;
13374;SDS011;6756;51.354;15.754;2022-08-26T07:21:38;22.83;;;17.20;;
13374;SDS011;6756;51.354;15.754;2022-08-26T07:25:40;27.13;;;21.63;;
13374;SDS011;6756;51.354;15.754;2022-08-26T07:29:41;29.53;;;22.70;;
13374;SDS011;6756;51.354;15.754;2022-08-26T07:33:43;29.35;;;20.48;;
13374;SDS011;6756;51.354;15.754;2022-08-26T07:37:45;35.10;;;24.53;;
13374;SDS011;6756;51.354;15.754;2022-08-26T07:41:46;35.15;;;23.63;;
13374;SDS011;6756;51.354;15.754;2022-08-26T07:45:46;31.38;;;23.00;;
13374;SDS011;6756;51.354;15.754;2022-08-26T07:49:51;28.90;;;20.47;;
13374;SDS011;6756;51.354;15.754;2022-08-26T07:53:56;27.38;;;19.70;;
13374;SDS011;6756;51.354;15.754;2022-08-26T07:57:57;33.58;;;22.08;;
13374;SDS011;6756;51.354;15.754;2022-08-26T08:02:01;25.95;;;21.15;;
13374;SDS011;6756;51.354;15.754;2022-08-26T08:06:08;29.92;;;21.88;;
13374;SDS011;6756;51.354;15.754;2022-08-26T08:10:10;24.08;;;16.70;;
13374;SDS011;6756;51.354;15.754;2022-08-26T08:14:14;27.55;;;21.02;;
13374;SDS011;6756;51.354;15.754;2022-08-26T08:18:15;25.95;;;17.73;;
13374;SDS011;6756;51.354;15.754;2022-08-26T08:22:16;26.70;;;17.65;;
13374;SDS011;6756;51.354;15.754;2022-08-26T08:26:17;24.75;;;14.65;;
13374;SDS011;6756;51.354;15.754;2022-08-26T08:30:19;24.40;;;15.23;;
13374;SDS011;6756;51.354;15.754;2022-08-26T08:34:21;24.63;;;14.88;;
13374;SDS011;6756;51.354;15.754;2022-08-26T08:38:22;22.30;;;16.45;;
13374;SDS011;6756;51.354;15.754;2022-08-26T08:46:41;25.15;;;14.57;;
13374;SDS011;6756;51.354;15.754;2022-08-26T08:50:45;23.85;;;14.88;;
13374;SDS011;6756;51.354;15.754;2022-08-26T08:54:49;23.48;;;11.95;;
13374;SDS011;6756;51.354;15.754;2022-08-26T08:58:52;19.08;;;10.13;;
13374;SDS011;6756;51.354;15.754;2022-08-26T09:03:07;18.30;;;10.43;;
13374;SDS011;6756;51.354;15.754;2022-08-26T09:11:42;23.48;;;11.73;;
13374;SDS011;6756;51.354;15.754;2022-08-26T09:19:50;20.95;;;10.43;;
13374;SDS011;6756;51.354;15.754;2022-08-26T09:23:53;21.67;;;11.77;;
13374;SDS011;6756;51.354;15.754;2022-08-26T09:27:55;20.85;;;11.45;;
13374;SDS011;6756;51.354;15.754;2022-08-26T09:32:13;18.40;;;9.90;;
13374;SDS011;6756;51.354;15.754;2022-08-26T09:36:21;17.48;;;11.02;;
13374;SDS011;6756;51.354;15.754;2022-08-26T09:40:33;17.35;;;9.60;;
13374;SDS011;6756;51.354;15.754;2022-08-26T09:53:48;18.85;;;6.40;;
13374;SDS011;6756;51.354;15.754;2022-08-26T09:57:58;14.93;;;7.20;;
13374;SDS011;6756;51.354;15.754;2022-08-26T10:02:32;17.27;;;6.00;;
13374;SDS011;6756;51.354;15.754;2022-08-26T10:06:37;17.63;;;6.95;;
13374;SDS011;6756;51.354;15.754;2022-08-26T10:10:41;18.70;;;6.35;;
13374;SDS011;6756;51.354;15.754;2022-08-26T10:23:15;16.25;;;6.65;;
13374;SDS011;6756;51.354;15.754;2022-08-26T10:31:39;15.27;;;7.45;;
13374;SDS011;6756;51.354;15.754;2022-08-26T10:44:49;16.63;;;6.68;;
13374;SDS011;6756;51.354;15.754;2022-08-26T10:48:55;14.98;;;7.95;;
13374;SDS011;6756;51.354;15.754;2022-08-26T10:57:56;12.63;;;6.68;;
13374;SDS011;6756;51.354;15.754;2022-08-26T11:02:17;11.20;;;6.53;;
13374;SDS011;6756;51.354;15.754;2022-08-26T11:14:42;18.77;;;5.90;;
13374;SDS011;6756;51.354;15.754;2022-08-26T11:18:42;15.65;;;5.80;;
13374;SDS011;6756;51.354;15.754;2022-08-26T11:22:44;11.20;;;4.88;;
13374;SDS011;6756;51.354;15.754;2022-08-26T11:26:45;11.18;;;5.13;;
13374;SDS011;6756;51.354;15.754;2022-08-26T11:30:47;14.88;;;4.82;;
13374;SDS011;6756;51.354;15.754;2022-08-26T11:34:53;10.85;;;4.97;;
13374;SDS011;6756;51.354;15.754;2022-08-26T11:38:56;9.85;;;4.72;;
13374;SDS011;6756;51.354;15.754;2022-08-26T11:47:00;11.40;;;3.80;;
13374;SDS011;6756;51.354;15.754;2022-08-26T11:51:04;6.40;;;2.80;;
13374;SDS011;6756;51.354;15.754;2022-08-26T11:55:08;6.57;;;2.70;;
13374;SDS011;6756;51.354;15.754;2022-08-26T11:59:16;5.88;;;2.72;;
13374;SDS011;6756;51.354;15.754;2022-08-26T12:03:30;9.02;;;3.15;;
13374;SDS011;6756;51.354;15.754;2022-08-26T12:07:34;5.93;;;2.97;;
13374;SDS011;6756;51.354;15.754;2022-08-26T12:11:36;8.65;;;2.95;;
13374;SDS011;6756;51.354;15.754;2022-08-26T12:15:38;10.27;;;3.28;;
13374;SDS011;6756;51.354;15.754;2022-08-26T12:19:39;7.32;;;3.25;;
13374;SDS011;6756;51.354;15.754;2022-08-26T12:23:44;6.30;;;3.13;;
13374;SDS011;6756;51.354;15.754;2022-08-26T12:27:46;4.38;;;2.95;;
13374;SDS011;6756;51.354;15.754;2022-08-26T12:31:47;7.95;;;2.53;;
13374;SDS011;6756;51.354;15.754;2022-08-26T12:35:49;5.38;;;3.00;;
13374;SDS011;6756;51.354;15.754;2022-08-26T12:39:50;8.23;;;3.28;;
13374;SDS011;6756;51.354;15.754;2022-08-26T12:43:51;9.25;;;3.35;;
13374;SDS011;6756;51.354;15.754;2022-08-26T12:47:53;8.55;;;3.10;;
13374;SDS011;6756;51.354;15.754;2022-08-26T12:51:57;5.10;;;3.05;;
13374;SDS011;6756;51.354;15.754;2022-08-26T12:56:00;8.18;;;3.25;;
13374;SDS011;6756;51.354;15.754;2022-08-26T13:00:22;8.00;;;3.00;;
13374;SDS011;6756;51.354;15.754;2022-08-26T13:04:41;8.50;;;2.85;;
13374;SDS011;6756;51.354;15.754;2022-08-26T13:08:43;10.02;;;3.13;;
13374;SDS011;6756;51.354;15.754;2022-08-26T13:13:04;7.97;;;3.13;;
13374;SDS011;6756;51.354;15.754;2022-08-26T13:17:05;8.52;;;3.65;;
13374;SDS011;6756;51.354;15.754;2022-08-26T13:21:13;9.27;;;3.28;;
13374;SDS011;6756;51.354;15.754;2022-08-26T13:25:17;8.30;;;3.15;;
13374;SDS011;6756;51.354;15.754;2022-08-26T13:29:18;14.38;;;3.72;;
13374;SDS011;6756;51.354;15.754;2022-08-26T13:33:19;12.30;;;4.00;;
13374;SDS011;6756;51.354;15.754;2022-08-26T13:37:21;8.32;;;3.70;;
13374;SDS011;6756;51.354;15.754;2022-08-26T13:41:22;14.65;;;4.03;;
13374;SDS011;6756;51.354;15.754;2022-08-26T13:45:23;11.10;;;3.42;;
13374;SDS011;6756;51.354;15.754;2022-08-26T13:49:24;6.22;;;3.20;;
13374;SDS011;6756;51.354;15.754;2022-08-26T13:53:25;12.10;;;3.28;;
13374;SDS011;6756;51.354;15.754;2022-08-26T13:57:26;12.68;;;2.80;;
13374;SDS011;6756;51.354;15.754;2022-08-26T14:01:29;12.68;;;3.40;;
13374;SDS011;6756;51.354;15.754;2022-08-26T14:05:30;13.35;;;3.13;;
13374;SDS011;6756;51.354;15.754;2022-08-26T14:09:32;7.45;;;3.15;;
13374;SDS011;6756;51.354;15.754;2022-08-26T14:13:33;6.03;;;2.90;;
13374;SDS011;6756;51.354;15.754;2022-08-26T14:17:34;10.35;;;3.47;;
13374;SDS011;6756;51.354;15.754;2022-08-26T14:21:35;9.55;;;3.30;;
13374;SDS011;6756;51.354;15.754;2022-08-26T14:25:38;11.00;;;3.10;;
13374;SDS011;6756;51.354;15.754;2022-08-26T14:29:39;12.02;;;3.78;;
13374;SDS011;6756;51.354;15.754;2022-08-26T14:33:40;8.30;;;2.83;;
13374;SDS011;6756;51.354;15.754;2022-08-26T14:37:41;9.20;;;2.90;;
13374;SDS011;6756;51.354;15.754;2022-08-26T14:41:49;8.27;;;3.50;;
13374;SDS011;6756;51.354;15.754;2022-08-26T14:45:51;9.85;;;3.33;;
13374;SDS011;6756;51.354;15.754;2022-08-26T14:49:52;11.10;;;3.22;;
13374;SDS011;6756;51.354;15.754;2022-08-26T14:53:53;9.52;;;3.22;;
13374;SDS011;6756;51.354;15.754;2022-08-26T14:58:12;10.20;;;3.08;;
13374;SDS011;6756;51.354;15.754;2022-08-26T15:02:13;12.18;;;3.15;;
13374;SDS011;6756;51.354;15.754;2022-08-26T15:06:14;10.00;;;2.83;;
13374;SDS011;6756;51.354;15.754;2022-08-26T15:10:16;9.77;;;3.15;;
13374;SDS011;6756;51.354;15.754;2022-08-26T15:14:17;11.27;;;3.60;;
13374;SDS011;6756;51.354;15.754;2022-08-26T15:18:19;11.70;;;3.33;;
13374;SDS011;6756;51.354;15.754;2022-08-26T15:22:21;8.93;;;3.00;;
13374;SDS011;6756;51.354;15.754;2022-08-26T15:26:22;9.57;;;3.30;;
13374;SDS011;6756;51.354;15.754;2022-08-26T15:30:23;11.98;;;3.15;;
13374;SDS011;6756;51.354;15.754;2022-08-26T15:34:24;7.25;;;3.30;;
13374;SDS011;6756;51.354;15.754;2022-08-26T15:38:32;8.52;;;3.38;;
13374;SDS011;6756;51.354;15.754;2022-08-26T15:42:38;8.18;;;3.30;;
13374;SDS011;6756;51.354;15.754;2022-08-26T15:46:39;6.85;;;3.42;;
13374;SDS011;6756;51.354;15.754;2022-08-26T15:50:42;6.97;;;3.40;;
13374;SDS011;6756;51.354;15.754;2022-08-26T15:55:01;8.18;;;3.88;;
13374;SDS011;6756;51.354;15.754;2022-08-26T15:59:02;14.27;;;4.07;;
13374;SDS011;6756;51.354;15.754;2022-08-26T16:03:05;10.70;;;3.30;;
13374;SDS011;6756;51.354;15.754;2022-08-26T16:07:06;9.38;;;3.92;;
13374;SDS011;6756;51.354;15.754;2022-08-26T16:11:07;6.18;;;3.20;;
13374;SDS011;6756;51.354;15.754;2022-08-26T16:15:08;8.05;;;3.35;;
13374;SDS011;6756;51.354;15.754;2022-08-26T16:19:09;9.82;;;3.75;;
13374;SDS011;6756;51.354;15.754;2022-08-26T16:23:10;8.48;;;3.80;;
13374;SDS011;6756;51.354;15.754;2022-08-26T16:27:11;8.18;;;3.83;;
13374;SDS011;6756;51.354;15.754;2022-08-26T16:31:12;6.65;;;3.70;;
13374;SDS011;6756;51.354;15.754;2022-08-26T16:35:14;6.38;;;3.47;;
13374;SDS011;6756;51.354;15.754;2022-08-26T16:39:15;4.97;;;3.33;;
13374;SDS011;6756;51.354;15.754;2022-08-26T16:43:16;7.18;;;3.53;;
13374;SDS011;6756;51.354;15.754;2022-08-26T16:47:17;4.05;;;3.08;;
13374;SDS011;6756;51.354;15.754;2022-08-26T16:51:20;4.47;;;3.50;;
13374;SDS011;6756;51.354;15.754;2022-08-26T16:55:22;7.57;;;3.60;;
13374;SDS011;6756;51.354;15.754;2022-08-26T16:59:23;6.60;;;3.92;;
13374;SDS011;6756;51.354;15.754;2022-08-26T17:03:23;5.47;;;3.63;;
13374;SDS011;6756;51.354;15.754;2022-08-26T17:07:24;6.53;;;4.45;;
13374;SDS011;6756;51.354;15.754;2022-08-26T17:11:25;6.00;;;3.92;;
13374;SDS011;6756;51.354;15.754;2022-08-26T17:15:26;7.55;;;3.95;;
13374;SDS011;6756;51.354;15.754;2022-08-26T17:19:27;5.13;;;3.40;;
13374;SDS011;6756;51.354;15.754;2022-08-26T17:23:28;5.68;;;3.63;;
13374;SDS011;6756;51.354;15.754;2022-08-26T17:27:29;4.00;;;3.50;;
13374;SDS011;6756;51.354;15.754;2022-08-26T17:31:30;4.20;;;3.60;;
13374;SDS011;6756;51.354;15.754;2022-08-26T17:35:31;5.30;;;3.95;;
13374;SDS011;6756;51.354;15.754;2022-08-26T17:39:34;4.90;;;3.77;;
13374;SDS011;6756;51.354;15.754;2022-08-26T17:43:36;6.03;;;3.40;;
13374;SDS011;6756;51.354;15.754;2022-08-26T17:47:37;4.27;;;3.70;;
13374;SDS011;6756;51.354;15.754;2022-08-26T17:51:39;5.27;;;4.60;;
13374;SDS011;6756;51.354;15.754;2022-08-26T17:55:40;7.00;;;4.93;;
13374;SDS011;6756;51.354;15.754;2022-08-26T17:59:40;5.47;;;4.43;;
13374;SDS011;6756;51.354;15.754;2022-08-26T18:03:41;5.47;;;4.23;;
13374;SDS011;6756;51.354;15.754;2022-08-26T18:07:42;4.90;;;4.37;;
13374;SDS011;6756;51.354;15.754;2022-08-26T18:11:43;5.13;;;4.63;;
13374;SDS011;6756;51.354;15.754;2022-08-26T18:15:45;5.73;;;4.40;;
13374;SDS011;6756;51.354;15.754;2022-08-26T18:19:46;5.87;;;4.80;;
13374;SDS011;6756;51.354;15.754;2022-08-26T18:23:47;6.07;;;5.03;;
13374;SDS011;6756;51.354;15.754;2022-08-26T18:27:49;7.30;;;4.60;;
13374;SDS011;6756;51.354;15.754;2022-08-26T18:31:50;8.33;;;5.13;;
13374;SDS011;6756;51.354;15.754;2022-08-26T18:35:51;6.00;;;5.10;;
13374;SDS011;6756;51.354;15.754;2022-08-26T18:39:52;9.63;;;5.40;;
13374;SDS011;6756;51.354;15.754;2022-08-26T18:43:53;6.43;;;5.30;;
13374;SDS011;6756;51.354;15.754;2022-08-26T18:47:55;5.80;;;5.00;;
13374;SDS011;6756;51.354;15.754;2022-08-26T18:51:56;7.97;;;5.80;;
13374;SDS011;6756;51.354;15.754;2022-08-26T18:55:57;6.77;;;5.23;;
13374;SDS011;6756;51.354;15.754;2022-08-26T18:59:58;5.30;;;4.80;;
13374;SDS011;6756;51.354;15.754;2022-08-26T19:04:00;5.30;;;4.80;;
13374;SDS011;6756;51.354;15.754;2022-08-26T19:08:02;6.37;;;4.23;;
13374;SDS011;6756;51.354;15.754;2022-08-26T19:12:03;12.43;;;5.97;;
13374;SDS011;6756;51.354;15.754;2022-08-26T19:16:05;10.13;;;6.73;;
13374;SDS011;6756;51.354;15.754;2022-08-26T19:20:06;16.83;;;8.37;;
13374;SDS011;6756;51.354;15.754;2022-08-26T19:24:09;18.33;;;8.53;;
13374;SDS011;6756;51.354;15.754;2022-08-26T19:28:15;12.00;;;8.20;;
13374;SDS011;6756;51.354;15.754;2022-08-26T19:32:17;13.97;;;8.10;;
13374;SDS011;6756;51.354;15.754;2022-08-26T19:36:23;14.80;;;7.10;;
13374;SDS011;6756;51.354;15.754;2022-08-26T19:40:25;9.67;;;6.77;;
13374;SDS011;6756;51.354;15.754;2022-08-26T19:44:27;8.70;;;5.70;;
13374;SDS011;6756;51.354;15.754;2022-08-26T19:48:46;10.27;;;5.80;;
13374;SDS011;6756;51.354;15.754;2022-08-26T19:52:48;11.43;;;6.40;;
13374;SDS011;6756;51.354;15.754;2022-08-26T19:56:49;9.20;;;5.73;;
13374;SDS011;6756;51.354;15.754;2022-08-26T20:00:50;9.00;;;5.53;;
13374;SDS011;6756;51.354;15.754;2022-08-26T20:04:51;10.80;;;6.27;;
13374;SDS011;6756;51.354;15.754;2022-08-26T20:08:52;8.87;;;6.07;;
13374;SDS011;6756;51.354;15.754;2022-08-26T20:12:53;9.50;;;5.57;;
13374;SDS011;6756;51.354;15.754;2022-08-26T20:16:54;10.50;;;5.97;;
13374;SDS011;6756;51.354;15.754;2022-08-26T20:20:57;8.33;;;5.73;;
13374;SDS011;6756;51.354;15.754;2022-08-26T20:25:16;11.10;;;5.90;;
13374;SDS011;6756;51.354;15.754;2022-08-26T20:29:17;10.17;;;6.13;;
13374;SDS011;6756;51.354;15.754;2022-08-26T20:33:18;9.33;;;5.67;;
13374;SDS011;6756;51.354;15.754;2022-08-26T20:37:20;6.80;;;5.50;;
13374;SDS011;6756;51.354;15.754;2022-08-26T20:41:21;13.53;;;5.83;;
13374;SDS011;6756;51.354;15.754;2022-08-26T20:45:24;5.70;;;5.00;;
13374;SDS011;6756;51.354;15.754;2022-08-26T20:49:25;7.77;;;5.77;;
13374;SDS011;6756;51.354;15.754;2022-08-26T20:53:27;10.40;;;6.27;;
13374;SDS011;6756;51.354;15.754;2022-08-26T20:57:28;10.83;;;6.50;;
13374;SDS011;6756;51.354;15.754;2022-08-26T21:01:30;8.77;;;5.40;;
13374;SDS011;6756;51.354;15.754;2022-08-26T21:05:35;7.70;;;5.30;;
13374;SDS011;6756;51.354;15.754;2022-08-26T21:09:36;8.33;;;5.57;;
13374;SDS011;6756;51.354;15.754;2022-08-26T21:13:37;8.67;;;5.87;;
13374;SDS011;6756;51.354;15.754;2022-08-26T21:17:39;8.03;;;5.47;;
13374;SDS011;6756;51.354;15.754;2022-08-26T21:21:42;6.60;;;5.77;;
13374;SDS011;6756;51.354;15.754;2022-08-26T21:25:44;10.23;;;5.77;;
13374;SDS011;6756;51.354;15.754;2022-08-26T21:29:45;6.63;;;5.47;;
13374;SDS011;6756;51.354;15.754;2022-08-26T21:33:46;7.50;;;5.70;;
13374;SDS011;6756;51.354;15.754;2022-08-26T21:37:47;7.73;;;5.27;;
13374;SDS011;6756;51.354;15.754;2022-08-26T21:41:48;5.33;;;4.83;;
13374;SDS011;6756;51.354;15.754;2022-08-26T21:45:49;6.13;;;5.53;;
13374;SDS011;6756;51.354;15.754;2022-08-26T21:49:50;6.77;;;5.63;;
13374;SDS011;6756;51.354;15.754;2022-08-26T21:53:51;7.37;;;5.30;;
13374;SDS011;6756;51.354;15.754;2022-08-26T21:57:53;7.50;;;5.40;;
13374;SDS011;6756;51.354;15.754;2022-08-26T22:01:54;7.90;;;6.07;;
13374;SDS011;6756;51.354;15.754;2022-08-26T22:05:56;6.23;;;5.63;;
13374;SDS011;6756;51.354;15.754;2022-08-26T22:10:00;6.90;;;5.73;;
13374;SDS011;6756;51.354;15.754;2022-08-26T22:14:01;7.73;;;5.63;;
13374;SDS011;6756;51.354;15.754;2022-08-26T22:18:02;6.30;;;5.70;;
13374;SDS011;6756;51.354;15.754;2022-08-26T22:22:03;7.47;;;5.50;;
13374;SDS011;6756;51.354;15.754;2022-08-26T22:26:05;8.07;;;5.97;;
13374;SDS011;6756;51.354;15.754;2022-08-26T22:30:07;7.77;;;6.97;;
13374;SDS011;6756;51.354;15.754;2022-08-26T22:34:09;7.23;;;6.53;;
13374;SDS011;6756;51.354;15.754;2022-08-26T22:38:15;8.80;;;6.60;;
13374;SDS011;6756;51.354;15.754;2022-08-26T22:42:16;7.17;;;6.47;;
13374;SDS011;6756;51.354;15.754;2022-08-26T22:46:17;9.50;;;7.00;;
13374;SDS011;6756;51.354;15.754;2022-08-26T22:50:19;8.47;;;7.30;;
13374;SDS011;6756;51.354;15.754;2022-08-26T22:54:20;7.53;;;6.83;;
13374;SDS011;6756;51.354;15.754;2022-08-26T22:58:21;9.37;;;8.10;;
13374;SDS011;6756;51.354;15.754;2022-08-26T23:02:22;8.27;;;7.40;;
13374;SDS011;6756;51.354;15.754;2022-08-26T23:06:23;10.97;;;6.77;;
13374;SDS011;6756;51.354;15.754;2022-08-26T23:10:24;8.77;;;6.80;;
13374;SDS011;6756;51.354;15.754;2022-08-26T23:14:25;8.63;;;6.67;;
13374;SDS011;6756;51.354;15.754;2022-08-26T23:18:26;7.63;;;6.33;;
13374;SDS011;6756;51.354;15.754;2022-08-26T23:22:27;10.10;;;7.43;;
13374;SDS011;6756;51.354;15.754;2022-08-26T23:26:28;10.53;;;8.27;;
13374;SDS011;6756;51.354;15.754;2022-08-26T23:30:29;16.13;;;9.57;;
13374;SDS011;6756;51.354;15.754;2022-08-26T23:34:31;11.23;;;8.97;;
13374;SDS011;6756;51.354;15.754;2022-08-26T23:38:50;8.57;;;7.67;;
13374;SDS011;6756;51.354;15.754;2022-08-26T23:42:51;13.87;;;11.40;;
13374;SDS011;6756;51.354;15.754;2022-08-26T23:46:53;13.97;;;11.00;;
13374;SDS011;6756;51.354;15.754;2022-08-26T23:50:54;14.97;;;12.93;;
13374;SDS011;6756;51.354;15.754;2022-08-26T23:55:14;13.63;;;12.20;;
13374;SDS011;6756;51.354;15.754;2022-08-26T23:59:14;13.70;;;12.00;;
